Little Black, Wisconsin
Current Conditions -  °F | °C
As of 8:55 PM on Wednesday 26 Nov 2014 (Local Time) from KMDZ Reporting Station
Overcast Overcast  
Wind Chill:   Ceiling: 1100
Heat Index: 21°   Visibility: 10mi
Dew Point: 17°   Wind: 13mph
Humidity: 86%   Direction: 330°NNW
Pressure: 30.17"   Gusts: NA
Location:  45.2044°N, 90.4212°W
Report Text: KMDZ 270255Z AUTO 33011KT 10SM OVC011 M06/M08 A3017 RMK AO2 T10631083
Loading
Personal Weather Stations






























Interactive Weather Map New forecast layout! Learn more

10-Day Weather Forecast

Advertisements
Track Severe Weather on mobile